sensor_id;sensor_type;location;lat;lon;timestamp;P1;durP1;ratioP1;P2;durP2;ratioP2
30934;SDS011;51033;42.648;23.292;2023-07-13T00:01:26;3.17;;;2.55;;
30934;SDS011;51033;42.648;23.292;2023-07-13T00:03:53;7.18;;;3.13;;
30934;SDS011;51033;42.648;23.292;2023-07-13T00:06:18;4.30;;;3.17;;
30934;SDS011;51033;42.648;23.292;2023-07-13T00:08:45;5.03;;;3.40;;
30934;SDS011;51033;42.648;23.292;2023-07-13T00:11:12;5.10;;;3.45;;
30934;SDS011;51033;42.648;23.292;2023-07-13T00:13:38;5.45;;;3.05;;
30934;SDS011;51033;42.648;23.292;2023-07-13T00:16:04;4.75;;;3.80;;
30934;SDS011;51033;42.648;23.292;2023-07-13T00:18:30;3.45;;;2.70;;
30934;SDS011;51033;42.648;23.292;2023-07-13T00:20:56;6.45;;;4.00;;
30934;SDS011;51033;42.648;23.292;2023-07-13T00:23:37;4.50;;;3.00;;
30934;SDS011;51033;42.648;23.292;2023-07-13T00:26:04;4.80;;;3.33;;
30934;SDS011;51033;42.648;23.292;2023-07-13T00:28:32;5.85;;;2.53;;
30934;SDS011;51033;42.648;23.292;2023-07-13T00:30:58;4.38;;;3.50;;
30934;SDS011;51033;42.648;23.292;2023-07-13T00:33:24;4.32;;;2.90;;
30934;SDS011;51033;42.648;23.292;2023-07-13T00:35:49;5.22;;;3.00;;
30934;SDS011;51033;42.648;23.292;2023-07-13T00:38:15;6.97;;;3.28;;
30934;SDS011;51033;42.648;23.292;2023-07-13T00:40:41;6.28;;;3.03;;
30934;SDS011;51033;42.648;23.292;2023-07-13T00:43:11;4.03;;;2.85;;
30934;SDS011;51033;42.648;23.292;2023-07-13T00:48:14;3.55;;;2.97;;
30934;SDS011;51033;42.648;23.292;2023-07-13T00:50:44;6.07;;;3.13;;
30934;SDS011;51033;42.648;23.292;2023-07-13T00:53:11;5.85;;;3.40;;
30934;SDS011;51033;42.648;23.292;2023-07-13T00:55:38;8.48;;;5.00;;
30934;SDS011;51033;42.648;23.292;2023-07-13T00:58:04;6.97;;;3.28;;
30934;SDS011;51033;42.648;23.292;2023-07-13T01:00:31;8.13;;;3.60;;
30934;SDS011;51033;42.648;23.292;2023-07-13T01:02:59;4.70;;;3.47;;
30934;SDS011;51033;42.648;23.292;2023-07-13T01:05:26;5.20;;;3.30;;
30934;SDS011;51033;42.648;23.292;2023-07-13T01:07:52;6.35;;;3.60;;
30934;SDS011;51033;42.648;23.292;2023-07-13T01:10:21;4.75;;;3.38;;
30934;SDS011;51033;42.648;23.292;2023-07-13T01:12:47;9.07;;;3.88;;
30934;SDS011;51033;42.648;23.292;2023-07-13T01:17:59;6.80;;;3.33;;
30934;SDS011;51033;42.648;23.292;2023-07-13T01:20:25;4.03;;;3.53;;
30934;SDS011;51033;42.648;23.292;2023-07-13T01:22:51;10.25;;;3.53;;
30934;SDS011;51033;42.648;23.292;2023-07-13T01:25:16;6.55;;;3.75;;
30934;SDS011;51033;42.648;23.292;2023-07-13T01:27:42;7.28;;;4.20;;
30934;SDS011;51033;42.648;23.292;2023-07-13T01:30:07;4.60;;;3.42;;
30934;SDS011;51033;42.648;23.292;2023-07-13T01:32:33;5.90;;;4.25;;
30934;SDS011;51033;42.648;23.292;2023-07-13T01:34:59;4.70;;;3.80;;
30934;SDS011;51033;42.648;23.292;2023-07-13T01:37:25;5.72;;;3.83;;
30934;SDS011;51033;42.648;23.292;2023-07-13T01:39:51;4.72;;;3.88;;
30934;SDS011;51033;42.648;23.292;2023-07-13T01:42:17;9.52;;;4.65;;
30934;SDS011;51033;42.648;23.292;2023-07-13T01:44:42;5.43;;;3.80;;
30934;SDS011;51033;42.648;23.292;2023-07-13T01:47:08;7.53;;;4.10;;
30934;SDS011;51033;42.648;23.292;2023-07-13T01:49:34;11.35;;;4.30;;
30934;SDS011;51033;42.648;23.292;2023-07-13T01:52:00;7.80;;;4.50;;
30934;SDS011;51033;42.648;23.292;2023-07-13T01:54:25;6.93;;;4.05;;
30934;SDS011;51033;42.648;23.292;2023-07-13T01:56:51;8.05;;;3.85;;
30934;SDS011;51033;42.648;23.292;2023-07-13T01:59:16;9.25;;;4.25;;
30934;SDS011;51033;42.648;23.292;2023-07-13T02:01:41;7.22;;;4.03;;
30934;SDS011;51033;42.648;23.292;2023-07-13T02:04:07;4.70;;;4.20;;
30934;SDS011;51033;42.648;23.292;2023-07-13T02:06:32;5.28;;;3.70;;
30934;SDS011;51033;42.648;23.292;2023-07-13T02:08:58;4.55;;;3.95;;
30934;SDS011;51033;42.648;23.292;2023-07-13T02:11:23;4.68;;;4.03;;
30934;SDS011;51033;42.648;23.292;2023-07-13T02:13:50;4.57;;;4.00;;
30934;SDS011;51033;42.648;23.292;2023-07-13T02:16:15;5.72;;;3.65;;
30934;SDS011;51033;42.648;23.292;2023-07-13T02:18:41;5.85;;;4.15;;
30934;SDS011;51033;42.648;23.292;2023-07-13T02:21:06;6.13;;;4.22;;
30934;SDS011;51033;42.648;23.292;2023-07-13T02:23:32;7.05;;;4.43;;
30934;SDS011;51033;42.648;23.292;2023-07-13T02:25:58;7.45;;;3.95;;
30934;SDS011;51033;42.648;23.292;2023-07-13T02:28:25;6.72;;;4.38;;
30934;SDS011;51033;42.648;23.292;2023-07-13T02:30:50;6.05;;;5.28;;
30934;SDS011;51033;42.648;23.292;2023-07-13T02:33:16;8.98;;;5.03;;
30934;SDS011;51033;42.648;23.292;2023-07-13T02:35:41;7.45;;;5.00;;
30934;SDS011;51033;42.648;23.292;2023-07-13T02:38:07;5.78;;;4.63;;
30934;SDS011;51033;42.648;23.292;2023-07-13T02:40:33;7.72;;;4.35;;
30934;SDS011;51033;42.648;23.292;2023-07-13T02:43:00;6.10;;;4.53;;
30934;SDS011;51033;42.648;23.292;2023-07-13T02:45:26;7.10;;;4.35;;
30934;SDS011;51033;42.648;23.292;2023-07-13T02:47:51;4.85;;;4.32;;
30934;SDS011;51033;42.648;23.292;2023-07-13T02:50:17;5.95;;;4.78;;
30934;SDS011;51033;42.648;23.292;2023-07-13T02:52:42;8.15;;;4.65;;
30934;SDS011;51033;42.648;23.292;2023-07-13T02:55:08;6.85;;;4.05;;
30934;SDS011;51033;42.648;23.292;2023-07-13T02:57:34;9.40;;;4.78;;
30934;SDS011;51033;42.648;23.292;2023-07-13T02:59:59;5.60;;;4.65;;
30934;SDS011;51033;42.648;23.292;2023-07-13T03:02:26;7.05;;;4.47;;
30934;SDS011;51033;42.648;23.292;2023-07-13T03:04:53;5.35;;;4.43;;
30934;SDS011;51033;42.648;23.292;2023-07-13T03:07:19;8.82;;;4.75;;
30934;SDS011;51033;42.648;23.292;2023-07-13T03:09:45;7.40;;;4.57;;
30934;SDS011;51033;42.648;23.292;2023-07-13T03:12:10;7.03;;;4.32;;
30934;SDS011;51033;42.648;23.292;2023-07-13T03:14:36;6.18;;;5.03;;
30934;SDS011;51033;42.648;23.292;2023-07-13T03:17:01;6.90;;;4.60;;
30934;SDS011;51033;42.648;23.292;2023-07-13T03:19:26;8.05;;;4.85;;
30934;SDS011;51033;42.648;23.292;2023-07-13T03:21:52;6.97;;;4.85;;
30934;SDS011;51033;42.648;23.292;2023-07-13T03:24:17;6.88;;;5.20;;
30934;SDS011;51033;42.648;23.292;2023-07-13T03:26:43;7.47;;;5.45;;
30934;SDS011;51033;42.648;23.292;2023-07-13T03:29:08;8.77;;;5.78;;
30934;SDS011;51033;42.648;23.292;2023-07-13T03:31:34;9.90;;;5.80;;
30934;SDS011;51033;42.648;23.292;2023-07-13T03:34:03;8.15;;;5.82;;
30934;SDS011;51033;42.648;23.292;2023-07-13T03:36:30;7.90;;;5.35;;
30934;SDS011;51033;42.648;23.292;2023-07-13T03:38:58;7.65;;;4.72;;
30934;SDS011;51033;42.648;23.292;2023-07-13T03:41:25;6.88;;;5.60;;
30934;SDS011;51033;42.648;23.292;2023-07-13T03:43:51;8.90;;;6.60;;
30934;SDS011;51033;42.648;23.292;2023-07-13T03:46:17;10.73;;;6.35;;
30934;SDS011;51033;42.648;23.292;2023-07-13T03:48:44;9.55;;;5.50;;
30934;SDS011;51033;42.648;23.292;2023-07-13T03:51:12;8.25;;;5.82;;
30934;SDS011;51033;42.648;23.292;2023-07-13T03:53:40;12.32;;;6.60;;
30934;SDS011;51033;42.648;23.292;2023-07-13T03:56:08;6.43;;;5.47;;
30934;SDS011;51033;42.648;23.292;2023-07-13T03:58:35;8.38;;;6.10;;
30934;SDS011;51033;42.648;23.292;2023-07-13T04:01:03;6.88;;;5.78;;
30934;SDS011;51033;42.648;23.292;2023-07-13T04:03:30;8.40;;;5.15;;
30934;SDS011;51033;42.648;23.292;2023-07-13T04:05:58;8.98;;;6.30;;
30934;SDS011;51033;42.648;23.292;2023-07-13T04:08:27;12.20;;;7.10;;
30934;SDS011;51033;42.648;23.292;2023-07-13T04:10:55;9.40;;;6.57;;
30934;SDS011;51033;42.648;23.292;2023-07-13T04:13:21;11.18;;;7.57;;
30934;SDS011;51033;42.648;23.292;2023-07-13T04:15:47;10.32;;;6.20;;
30934;SDS011;51033;42.648;23.292;2023-07-13T04:18:12;7.60;;;6.53;;
30934;SDS011;51033;42.648;23.292;2023-07-13T04:20:37;10.27;;;6.25;;
30934;SDS011;51033;42.648;23.292;2023-07-13T04:23:03;9.52;;;5.90;;
30934;SDS011;51033;42.648;23.292;2023-07-13T04:25:28;11.35;;;6.47;;
30934;SDS011;51033;42.648;23.292;2023-07-13T04:27:54;8.75;;;6.72;;
30934;SDS011;51033;42.648;23.292;2023-07-13T04:30:20;11.05;;;6.25;;
30934;SDS011;51033;42.648;23.292;2023-07-13T04:32:46;8.98;;;6.43;;
30934;SDS011;51033;42.648;23.292;2023-07-13T04:35:12;9.85;;;7.53;;
30934;SDS011;51033;42.648;23.292;2023-07-13T04:37:38;11.98;;;8.05;;
30934;SDS011;51033;42.648;23.292;2023-07-13T04:40:03;11.82;;;7.53;;
30934;SDS011;51033;42.648;23.292;2023-07-13T04:42:29;9.80;;;6.95;;
30934;SDS011;51033;42.648;23.292;2023-07-13T04:44:55;13.38;;;7.43;;
30934;SDS011;51033;42.648;23.292;2023-07-13T04:47:20;10.95;;;6.78;;
30934;SDS011;51033;42.648;23.292;2023-07-13T04:49:45;11.82;;;7.90;;
30934;SDS011;51033;42.648;23.292;2023-07-13T04:52:11;18.00;;;8.80;;
30934;SDS011;51033;42.648;23.292;2023-07-13T04:54:37;18.77;;;8.32;;
30934;SDS011;51033;42.648;23.292;2023-07-13T04:57:04;14.60;;;8.45;;
30934;SDS011;51033;42.648;23.292;2023-07-13T04:59:31;13.05;;;8.23;;
30934;SDS011;51033;42.648;23.292;2023-07-13T05:01:57;10.70;;;7.68;;
30934;SDS011;51033;42.648;23.292;2023-07-13T05:04:22;16.92;;;8.20;;
30934;SDS011;51033;42.648;23.292;2023-07-13T05:06:48;11.88;;;7.28;;
30934;SDS011;51033;42.648;23.292;2023-07-13T05:09:13;18.60;;;7.95;;
30934;SDS011;51033;42.648;23.292;2023-07-13T05:11:39;15.63;;;8.55;;
30934;SDS011;51033;42.648;23.292;2023-07-13T05:14:04;18.73;;;8.35;;
30934;SDS011;51033;42.648;23.292;2023-07-13T05:16:30;14.13;;;9.07;;
30934;SDS011;51033;42.648;23.292;2023-07-13T05:18:56;15.85;;;8.82;;
30934;SDS011;51033;42.648;23.292;2023-07-13T05:21:22;12.85;;;9.95;;
30934;SDS011;51033;42.648;23.292;2023-07-13T05:23:47;14.40;;;9.40;;
30934;SDS011;51033;42.648;23.292;2023-07-13T05:26:13;16.63;;;11.50;;
30934;SDS011;51033;42.648;23.292;2023-07-13T05:28:38;16.23;;;12.05;;
30934;SDS011;51033;42.648;23.292;2023-07-13T05:31:04;16.00;;;12.23;;
30934;SDS011;51033;42.648;23.292;2023-07-13T05:33:32;19.23;;;11.48;;
30934;SDS011;51033;42.648;23.292;2023-07-13T05:35:57;16.05;;;11.80;;
30934;SDS011;51033;42.648;23.292;2023-07-13T05:38:23;17.90;;;11.73;;
30934;SDS011;51033;42.648;23.292;2023-07-13T05:40:49;14.07;;;10.70;;
30934;SDS011;51033;42.648;23.292;2023-07-13T05:43:15;19.75;;;10.88;;
30934;SDS011;51033;42.648;23.292;2023-07-13T05:45:40;16.77;;;10.43;;
30934;SDS011;51033;42.648;23.292;2023-07-13T05:48:06;13.50;;;10.30;;
30934;SDS011;51033;42.648;23.292;2023-07-13T05:50:32;19.55;;;10.30;;
30934;SDS011;51033;42.648;23.292;2023-07-13T05:52:57;14.25;;;9.82;;
30934;SDS011;51033;42.648;23.292;2023-07-13T05:55:23;16.55;;;10.05;;
30934;SDS011;51033;42.648;23.292;2023-07-13T05:57:48;13.32;;;9.80;;
30934;SDS011;51033;42.648;23.292;2023-07-13T06:00:14;16.60;;;10.82;;
30934;SDS011;51033;42.648;23.292;2023-07-13T06:02:40;18.60;;;9.68;;
30934;SDS011;51033;42.648;23.292;2023-07-13T06:05:06;14.43;;;10.43;;
30934;SDS011;51033;42.648;23.292;2023-07-13T06:07:32;13.30;;;9.23;;
30934;SDS011;51033;42.648;23.292;2023-07-13T06:09:57;17.95;;;9.88;;
30934;SDS011;51033;42.648;23.292;2023-07-13T06:12:24;14.68;;;8.48;;
30934;SDS011;51033;42.648;23.292;2023-07-13T06:14:50;15.45;;;8.88;;
30934;SDS011;51033;42.648;23.292;2023-07-13T06:17:15;17.08;;;8.77;;
30934;SDS011;51033;42.648;23.292;2023-07-13T06:19:41;13.45;;;8.90;;
30934;SDS011;51033;42.648;23.292;2023-07-13T06:22:06;16.67;;;8.90;;
30934;SDS011;51033;42.648;23.292;2023-07-13T06:24:32;18.67;;;8.20;;
30934;SDS011;51033;42.648;23.292;2023-07-13T06:26:57;18.15;;;9.18;;
30934;SDS011;51033;42.648;23.292;2023-07-13T06:29:22;17.65;;;9.13;;
30934;SDS011;51033;42.648;23.292;2023-07-13T06:31:48;15.93;;;8.73;;
30934;SDS011;51033;42.648;23.292;2023-07-13T06:34:13;12.68;;;9.23;;
30934;SDS011;51033;42.648;23.292;2023-07-13T06:36:39;13.50;;;8.45;;
30934;SDS011;51033;42.648;23.292;2023-07-13T06:39:05;13.40;;;8.57;;
30934;SDS011;51033;42.648;23.292;2023-07-13T06:41:31;12.02;;;7.97;;
30934;SDS011;51033;42.648;23.292;2023-07-13T06:43:58;8.48;;;7.40;;
30934;SDS011;51033;42.648;23.292;2023-07-13T06:46:23;12.77;;;7.72;;
30934;SDS011;51033;42.648;23.292;2023-07-13T06:48:49;14.35;;;8.02;;
30934;SDS011;51033;42.648;23.292;2023-07-13T06:51:15;12.23;;;8.70;;
30934;SDS011;51033;42.648;23.292;2023-07-13T06:53:41;15.20;;;9.05;;
30934;SDS011;51033;42.648;23.292;2023-07-13T06:56:08;13.55;;;8.20;;
30934;SDS011;51033;42.648;23.292;2023-07-13T06:58:35;15.50;;;9.63;;
30934;SDS011;51033;42.648;23.292;2023-07-13T07:01:00;15.05;;;9.35;;
30934;SDS011;51033;42.648;23.292;2023-07-13T07:03:26;15.52;;;8.30;;
30934;SDS011;51033;42.648;23.292;2023-07-13T07:05:51;21.02;;;9.50;;
30934;SDS011;51033;42.648;23.292;2023-07-13T07:08:16;13.52;;;7.78;;
30934;SDS011;51033;42.648;23.292;2023-07-13T07:10:42;16.10;;;10.18;;
30934;SDS011;51033;42.648;23.292;2023-07-13T07:13:07;13.60;;;9.43;;
30934;SDS011;51033;42.648;23.292;2023-07-13T07:15:34;19.42;;;9.75;;
30934;SDS011;51033;42.648;23.292;2023-07-13T07:18:00;16.58;;;9.85;;
30934;SDS011;51033;42.648;23.292;2023-07-13T07:20:25;12.73;;;9.05;;
30934;SDS011;51033;42.648;23.292;2023-07-13T07:22:51;16.02;;;9.65;;
30934;SDS011;51033;42.648;23.292;2023-07-13T07:25:17;16.63;;;10.05;;
30934;SDS011;51033;42.648;23.292;2023-07-13T07:27:43;15.90;;;9.60;;
30934;SDS011;51033;42.648;23.292;2023-07-13T07:30:09;12.40;;;8.32;;
30934;SDS011;51033;42.648;23.292;2023-07-13T07:32:36;16.48;;;9.00;;
30934;SDS011;51033;42.648;23.292;2023-07-13T07:35:01;14.82;;;8.18;;
30934;SDS011;51033;42.648;23.292;2023-07-13T07:37:27;15.65;;;8.93;;
30934;SDS011;51033;42.648;23.292;2023-07-13T07:39:52;11.25;;;8.82;;
30934;SDS011;51033;42.648;23.292;2023-07-13T07:42:18;13.82;;;9.02;;
30934;SDS011;51033;42.648;23.292;2023-07-13T07:44:43;12.05;;;8.65;;
30934;SDS011;51033;42.648;23.292;2023-07-13T07:47:08;17.75;;;8.38;;
30934;SDS011;51033;42.648;23.292;2023-07-13T07:49:34;15.13;;;8.82;;
30934;SDS011;51033;42.648;23.292;2023-07-13T07:52:01;13.27;;;8.52;;
30934;SDS011;51033;42.648;23.292;2023-07-13T07:54:26;15.82;;;8.50;;
30934;SDS011;51033;42.648;23.292;2023-07-13T07:56:52;15.90;;;8.93;;
30934;SDS011;51033;42.648;23.292;2023-07-13T07:59:18;15.30;;;7.60;;
30934;SDS011;51033;42.648;23.292;2023-07-13T08:01:44;14.00;;;8.30;;
30934;SDS011;51033;42.648;23.292;2023-07-13T08:04:11;15.32;;;8.45;;
30934;SDS011;51033;42.648;23.292;2023-07-13T08:06:37;18.27;;;8.85;;
30934;SDS011;51033;42.648;23.292;2023-07-13T08:09:02;15.68;;;10.20;;
30934;SDS011;51033;42.648;23.292;2023-07-13T08:11:29;18.75;;;8.70;;
30934;SDS011;51033;42.648;23.292;2023-07-13T08:13:54;15.63;;;8.68;;
30934;SDS011;51033;42.648;23.292;2023-07-13T08:16:20;17.00;;;8.23;;
30934;SDS011;51033;42.648;23.292;2023-07-13T08:18:46;12.57;;;8.05;;
30934;SDS011;51033;42.648;23.292;2023-07-13T08:21:11;14.13;;;7.97;;
30934;SDS011;51033;42.648;23.292;2023-07-13T08:23:37;17.48;;;9.07;;
30934;SDS011;51033;42.648;23.292;2023-07-13T08:26:02;11.52;;;7.30;;
30934;SDS011;51033;42.648;23.292;2023-07-13T08:28:29;13.77;;;8.18;;
30934;SDS011;51033;42.648;23.292;2023-07-13T08:30:54;10.48;;;7.50;;
30934;SDS011;51033;42.648;23.292;2023-07-13T08:33:21;17.55;;;8.32;;
30934;SDS011;51033;42.648;23.292;2023-07-13T08:35:49;9.85;;;7.40;;
30934;SDS011;51033;42.648;23.292;2023-07-13T08:38:14;15.20;;;8.30;;
30934;SDS011;51033;42.648;23.292;2023-07-13T08:40:41;13.00;;;8.35;;
30934;SDS011;51033;42.648;23.292;2023-07-13T08:43:15;16.00;;;7.70;;
30934;SDS011;51033;42.648;23.292;2023-07-13T08:48:25;19.35;;;9.05;;
30934;SDS011;51033;42.648;23.292;2023-07-13T08:51:02;21.60;;;8.65;;
30934;SDS011;51033;42.648;23.292;2023-07-13T08:53:38;11.30;;;7.32;;
30934;SDS011;51033;42.648;23.292;2023-07-13T08:56:09;18.43;;;8.60;;
30934;SDS011;51033;42.648;23.292;2023-07-13T08:58:44;11.15;;;8.02;;
30934;SDS011;51033;42.648;23.292;2023-07-13T09:01:21;8.45;;;7.13;;
30934;SDS011;51033;42.648;23.292;2023-07-13T09:07:03;12.57;;;8.07;;
30934;SDS011;51033;42.648;23.292;2023-07-13T09:14:59;12.05;;;7.68;;
30934;SDS011;51033;42.648;23.292;2023-07-13T09:17:40;12.07;;;7.60;;
30934;SDS011;51033;42.648;23.292;2023-07-13T09:22:55;12.27;;;6.97;;
30934;SDS011;51033;42.648;23.292;2023-07-13T09:25:27;9.45;;;6.82;;
30934;SDS011;51033;42.648;23.292;2023-07-13T09:27:57;13.57;;;6.93;;
30934;SDS011;51033;42.648;23.292;2023-07-13T09:30:36;12.82;;;7.15;;
30934;SDS011;51033;42.648;23.292;2023-07-13T09:33:04;12.68;;;7.97;;
30934;SDS011;51033;42.648;23.292;2023-07-13T09:35:29;9.50;;;7.63;;
30934;SDS011;51033;42.648;23.292;2023-07-13T09:38:01;21.80;;;8.00;;
30934;SDS011;51033;42.648;23.292;2023-07-13T09:40:40;12.32;;;7.72;;
30934;SDS011;51033;42.648;23.292;2023-07-13T09:43:19;13.25;;;8.52;;
30934;SDS011;51033;42.648;23.292;2023-07-13T09:45:46;15.65;;;7.63;;
30934;SDS011;51033;42.648;23.292;2023-07-13T09:48:13;11.00;;;7.80;;
30934;SDS011;51033;42.648;23.292;2023-07-13T09:50:40;12.10;;;8.18;;
30934;SDS011;51033;42.648;23.292;2023-07-13T09:55:39;11.13;;;7.97;;
30934;SDS011;51033;42.648;23.292;2023-07-13T09:58:18;10.40;;;6.97;;
30934;SDS011;51033;42.648;23.292;2023-07-13T10:03:23;15.45;;;7.82;;
30934;SDS011;51033;42.648;23.292;2023-07-13T10:05:54;9.63;;;7.60;;
30934;SDS011;51033;42.648;23.292;2023-07-13T10:08:34;17.00;;;9.18;;
30934;SDS011;51033;42.648;23.292;2023-07-13T10:11:02;11.18;;;8.05;;
30934;SDS011;51033;42.648;23.292;2023-07-13T10:13:37;10.90;;;7.93;;
30934;SDS011;51033;42.648;23.292;2023-07-13T10:16:07;10.30;;;7.45;;
30934;SDS011;51033;42.648;23.292;2023-07-13T10:18:37;10.70;;;5.85;;
30934;SDS011;51033;42.648;23.292;2023-07-13T10:21:26;10.02;;;4.80;;
30934;SDS011;51033;42.648;23.292;2023-07-13T10:24:02;5.53;;;4.25;;
30934;SDS011;51033;42.648;23.292;2023-07-13T10:26:36;6.18;;;3.65;;
30934;SDS011;51033;42.648;23.292;2023-07-13T10:29:05;5.47;;;3.70;;
30934;SDS011;51033;42.648;23.292;2023-07-13T10:31:34;6.47;;;3.72;;
30934;SDS011;51033;42.648;23.292;2023-07-13T10:34:03;7.78;;;3.42;;
30934;SDS011;51033;42.648;23.292;2023-07-13T10:39:04;9.73;;;4.43;;
30934;SDS011;51033;42.648;23.292;2023-07-13T10:41:31;8.18;;;3.70;;
30934;SDS011;51033;42.648;23.292;2023-07-13T10:44:06;8.18;;;4.53;;
30934;SDS011;51033;42.648;23.292;2023-07-13T10:46:41;6.78;;;4.10;;
30934;SDS011;51033;42.648;23.292;2023-07-13T10:49:09;7.40;;;3.83;;
30934;SDS011;51033;42.648;23.292;2023-07-13T10:51:36;12.25;;;4.60;;
30934;SDS011;51033;42.648;23.292;2023-07-13T10:54:19;6.57;;;4.20;;
30934;SDS011;51033;42.648;23.292;2023-07-13T10:56:50;7.47;;;4.30;;
30934;SDS011;51033;42.648;23.292;2023-07-13T10:59:25;6.28;;;3.88;;
30934;SDS011;51033;42.648;23.292;2023-07-13T11:01:56;6.70;;;4.50;;
30934;SDS011;51033;42.648;23.292;2023-07-13T11:04:46;7.68;;;4.18;;
30934;SDS011;51033;42.648;23.292;2023-07-13T11:07:21;4.50;;;3.67;;
30934;SDS011;51033;42.648;23.292;2023-07-13T11:09:52;6.32;;;4.00;;
30934;SDS011;51033;42.648;23.292;2023-07-13T11:17:33;8.05;;;4.70;;
30934;SDS011;51033;42.648;23.292;2023-07-13T11:25:34;5.85;;;4.20;;
30934;SDS011;51033;42.648;23.292;2023-07-13T11:36:05;6.38;;;3.92;;
30934;SDS011;51033;42.648;23.292;2023-07-13T11:39:03;8.20;;;4.60;;
30934;SDS011;51033;42.648;23.292;2023-07-13T11:41:37;10.57;;;5.10;;
30934;SDS011;51033;42.648;23.292;2023-07-13T11:46:43;10.77;;;4.63;;
30934;SDS011;51033;42.648;23.292;2023-07-13T11:49:12;10.63;;;5.30;;
30934;SDS011;51033;42.648;23.292;2023-07-13T11:51:41;7.05;;;4.80;;
30934;SDS011;51033;42.648;23.292;2023-07-13T11:54:10;10.10;;;4.28;;
30934;SDS011;51033;42.648;23.292;2023-07-13T11:56:51;10.07;;;4.90;;
30934;SDS011;51033;42.648;23.292;2023-07-13T11:59:18;7.95;;;4.68;;
30934;SDS011;51033;42.648;23.292;2023-07-13T12:01:46;7.82;;;4.60;;
30934;SDS011;51033;42.648;23.292;2023-07-13T12:04:24;9.05;;;4.78;;
30934;SDS011;51033;42.648;23.292;2023-07-13T12:06:54;10.55;;;5.80;;
30934;SDS011;51033;42.648;23.292;2023-07-13T12:09:28;9.27;;;6.35;;
30934;SDS011;51033;42.648;23.292;2023-07-13T12:11:54;13.70;;;6.15;;
30934;SDS011;51033;42.648;23.292;2023-07-13T12:14:22;13.10;;;6.32;;
30934;SDS011;51033;42.648;23.292;2023-07-13T12:16:50;11.90;;;6.63;;
30934;SDS011;51033;42.648;23.292;2023-07-13T12:19:20;9.57;;;5.30;;
30934;SDS011;51033;42.648;23.292;2023-07-13T12:21:47;11.75;;;5.82;;
30934;SDS011;51033;42.648;23.292;2023-07-13T12:24:15;13.32;;;5.97;;
30934;SDS011;51033;42.648;23.292;2023-07-13T12:26:42;14.43;;;6.72;;
30934;SDS011;51033;42.648;23.292;2023-07-13T12:29:10;11.30;;;6.20;;
30934;SDS011;51033;42.648;23.292;2023-07-13T12:31:42;10.07;;;6.90;;
30934;SDS011;51033;42.648;23.292;2023-07-13T12:36:47;15.23;;;5.95;;
30934;SDS011;51033;42.648;23.292;2023-07-13T12:39:23;10.07;;;6.00;;
30934;SDS011;51033;42.648;23.292;2023-07-13T12:41:49;11.75;;;6.85;;
30934;SDS011;51033;42.648;23.292;2023-07-13T12:44:34;9.15;;;5.38;;
30934;SDS011;51033;42.648;23.292;2023-07-13T12:47:06;10.98;;;6.07;;
30934;SDS011;51033;42.648;23.292;2023-07-13T12:49:42;13.05;;;6.50;;
30934;SDS011;51033;42.648;23.292;2023-07-13T12:52:16;12.15;;;6.63;;
30934;SDS011;51033;42.648;23.292;2023-07-13T12:54:55;10.48;;;5.90;;
30934;SDS011;51033;42.648;23.292;2023-07-13T12:57:23;11.82;;;6.53;;
30934;SDS011;51033;42.648;23.292;2023-07-13T12:59:51;7.72;;;6.10;;
30934;SDS011;51033;42.648;23.292;2023-07-13T13:02:29;11.77;;;6.32;;
30934;SDS011;51033;42.648;23.292;2023-07-13T13:04:58;9.38;;;5.68;;
30934;SDS011;51033;42.648;23.292;2023-07-13T13:07:24;7.68;;;6.40;;
30934;SDS011;51033;42.648;23.292;2023-07-13T13:09:50;11.32;;;6.28;;
30934;SDS011;51033;42.648;23.292;2023-07-13T13:12:17;10.02;;;6.57;;
30934;SDS011;51033;42.648;23.292;2023-07-13T13:14:43;9.40;;;6.25;;
30934;SDS011;51033;42.648;23.292;2023-07-13T13:17:19;9.90;;;5.55;;
30934;SDS011;51033;42.648;23.292;2023-07-13T13:19:49;12.10;;;5.38;;
30934;SDS011;51033;42.648;23.292;2023-07-13T13:22:18;11.65;;;6.47;;
30934;SDS011;51033;42.648;23.292;2023-07-13T13:24:43;9.00;;;6.40;;
30934;SDS011;51033;42.648;23.292;2023-07-13T13:27:15;6.90;;;5.70;;
30934;SDS011;51033;42.648;23.292;2023-07-13T13:29:43;10.85;;;6.10;;
30934;SDS011;51033;42.648;23.292;2023-07-13T13:32:13;10.18;;;6.25;;
30934;SDS011;51033;42.648;23.292;2023-07-13T13:34:39;13.25;;;6.40;;
30934;SDS011;51033;42.648;23.292;2023-07-13T13:37:10;12.25;;;6.45;;
30934;SDS011;51033;42.648;23.292;2023-07-13T13:39:43;16.20;;;6.95;;
30934;SDS011;51033;42.648;23.292;2023-07-13T13:42:09;9.20;;;5.97;;
30934;SDS011;51033;42.648;23.292;2023-07-13T13:44:35;16.85;;;6.13;;
30934;SDS011;51033;42.648;23.292;2023-07-13T13:47:00;12.82;;;4.45;;
30934;SDS011;51033;42.648;23.292;2023-07-13T13:49:27;10.48;;;4.93;;
30934;SDS011;51033;42.648;23.292;2023-07-13T13:51:53;9.63;;;3.88;;
30934;SDS011;51033;42.648;23.292;2023-07-13T13:54:19;11.73;;;4.55;;
30934;SDS011;51033;42.648;23.292;2023-07-13T13:56:47;11.07;;;4.97;;
30934;SDS011;51033;42.648;23.292;2023-07-13T13:59:14;10.32;;;4.97;;
30934;SDS011;51033;42.648;23.292;2023-07-13T14:01:40;8.90;;;4.10;;
30934;SDS011;51033;42.648;23.292;2023-07-13T14:04:14;6.70;;;3.83;;
30934;SDS011;51033;42.648;23.292;2023-07-13T14:06:42;8.43;;;4.35;;
30934;SDS011;51033;42.648;23.292;2023-07-13T14:09:12;8.25;;;3.28;;
30934;SDS011;51033;42.648;23.292;2023-07-13T14:11:38;9.90;;;3.92;;
30934;SDS011;51033;42.648;23.292;2023-07-13T14:14:08;10.45;;;4.18;;
30934;SDS011;51033;42.648;23.292;2023-07-13T14:16:39;10.93;;;3.67;;
30934;SDS011;51033;42.648;23.292;2023-07-13T14:19:08;8.98;;;3.92;;
30934;SDS011;51033;42.648;23.292;2023-07-13T14:21:37;12.15;;;5.05;;
30934;SDS011;51033;42.648;23.292;2023-07-13T14:24:02;9.32;;;3.70;;
30934;SDS011;51033;42.648;23.292;2023-07-13T14:26:28;12.30;;;4.03;;
30934;SDS011;51033;42.648;23.292;2023-07-13T14:28:57;13.80;;;4.82;;
30934;SDS011;51033;42.648;23.292;2023-07-13T14:31:23;11.15;;;4.15;;
30934;SDS011;51033;42.648;23.292;2023-07-13T14:33:49;11.45;;;4.47;;
30934;SDS011;51033;42.648;23.292;2023-07-13T14:38:46;12.02;;;4.63;;
30934;SDS011;51033;42.648;23.292;2023-07-13T14:41:11;9.55;;;4.07;;
30934;SDS011;51033;42.648;23.292;2023-07-13T14:43:37;10.32;;;4.55;;
30934;SDS011;51033;42.648;23.292;2023-07-13T14:46:02;14.23;;;5.25;;
30934;SDS011;51033;42.648;23.292;2023-07-13T14:48:29;11.68;;;4.25;;
30934;SDS011;51033;42.648;23.292;2023-07-13T14:50:55;12.40;;;4.32;;
30934;SDS011;51033;42.648;23.292;2023-07-13T14:53:22;10.50;;;4.38;;
30934;SDS011;51033;42.648;23.292;2023-07-13T14:55:49;11.25;;;3.55;;
30934;SDS011;51033;42.648;23.292;2023-07-13T14:58:15;14.80;;;3.80;;
30934;SDS011;51033;42.648;23.292;2023-07-13T15:00:40;10.02;;;4.07;;
30934;SDS011;51033;42.648;23.292;2023-07-13T15:03:08;9.45;;;4.63;;
30934;SDS011;51033;42.648;23.292;2023-07-13T15:05:44;6.82;;;3.88;;
30934;SDS011;51033;42.648;23.292;2023-07-13T15:08:09;9.88;;;3.63;;
30934;SDS011;51033;42.648;23.292;2023-07-13T15:10:35;12.20;;;3.95;;
30934;SDS011;51033;42.648;23.292;2023-07-13T15:13:20;7.22;;;4.32;;
30934;SDS011;51033;42.648;23.292;2023-07-13T15:15:47;10.48;;;4.38;;
30934;SDS011;51033;42.648;23.292;2023-07-13T15:18:17;8.60;;;4.10;;
30934;SDS011;51033;42.648;23.292;2023-07-13T15:20:44;7.70;;;3.78;;
30934;SDS011;51033;42.648;23.292;2023-07-13T15:23:12;8.65;;;4.18;;